Time;durP1;ratioP1;P1;durP2;ratioP2;P2;SDS_P1;SDS_P2;PMS_P1;PMS_P2;Temp;Humidity;BMP_temperature;BMP_pressure;BME280_temperature;BME280_humidity;BME280_pressure;Samples;Min_cycle;Max_cycle;Signal;HPM_P1;HPM_P2
2023/08/20 08:23:20;;;;;;;26.17;17.52;;;31.50;99.90;;;;;;4947320;28;20229;-69
2023/08/20 08:25:51;;;;;;;26.13;17.60;;;32.90;99.90;;;;;;5065842;28;20296;-75
2023/08/20 08:28:26;;;;;;;28.90;19.13;;;35.50;99.90;;;;;;5028791;28;20206;-70
2023/08/20 08:30:53;;;;;;;29.73;18.25;;;34.40;99.90;;;;;;5065580;28;20199;-70
2023/08/20 08:33:23;;;;;;;27.85;18.45;;;34.60;99.90;;;;;;5038867;28;20249;-74
2023/08/20 08:35:57;;;;;;;27.35;18.70;;;32.50;99.90;;;;;;5043413;28;20199;-73
2023/08/20 08:38:24;;;;;;;25.27;16.67;;;33.60;99.90;;;;;;5048798;28;20215;-75
2023/08/20 08:40:59;;;;;;;24.52;16.20;;;35.50;99.90;;;;;;5045050;28;20222;-74
2023/08/20 08:43:29;;;;;;;25.50;16.95;;;37.00;99.90;;;;;;5032389;28;20240;-76
2023/08/20 08:45:57;;;;;;;28.10;19.02;;;38.60;99.90;;;;;;5054281;28;20602;-75
2023/08/20 08:48:26;;;;;;;22.85;16.65;;;37.40;99.90;;;;;;5033150;28;20187;-75
2023/08/20 08:50:57;;;;;;;26.48;18.88;;;36.00;99.90;;;;;;5031572;28;20252;-75
2023/08/20 08:53:26;;;;;;;26.42;19.02;;;34.80;99.90;;;;;;5046118;28;20666;-74
2023/08/20 08:55:53;;;;;;;26.60;18.88;;;35.00;99.90;;;;;;5049455;28;20217;-74
2023/08/20 08:58:22;;;;;;;28.70;17.85;;;33.80;99.90;;;;;;5062222;28;20228;-74
2023/08/20 09:00:51;;;;;;;27.67;17.70;;;33.00;99.90;;;;;;5026397;28;20211;-74
2023/08/20 09:03:26;;;;;;;30.17;17.45;;;35.60;99.90;;;;;;5046137;28;20210;-74
2023/08/20 09:06:02;;;;;;;25.63;16.70;;;35.90;99.90;;;;;;5047265;28;20539;-75
2023/08/20 09:08:31;;;;;;;25.35;17.73;;;36.70;99.90;;;;;;5064533;28;20249;-75
2023/08/20 09:11:00;;;;;;;24.65;17.58;;;35.30;99.90;;;;;;5041664;28;20660;-74
2023/08/20 09:13:38;;;;;;;21.92;15.30;;;36.20;99.90;;;;;;5042016;28;20182;-74
2023/08/20 09:16:07;;;;;;;22.63;16.63;;;38.70;99.90;;;;;;5059242;28;20198;-74
2023/08/20 09:18:43;;;;;;;24.52;16.52;;;37.30;99.90;;;;;;5042671;28;20193;-74
2023/08/20 09:21:12;;;;;;;21.50;15.57;;;40.00;99.90;;;;;;5064137;28;20279;-74
2023/08/20 09:23:39;;;;;;;19.48;14.13;;;38.60;99.90;;;;;;5035051;28;20717;-74
2023/08/20 09:26:07;;;;;;;21.80;15.40;;;40.10;99.90;;;;;;5038085;28;20248;-75
2023/08/20 09:28:46;;;;;;;20.25;16.63;;;40.30;99.90;;;;;;5039415;28;20672;-74
2023/08/20 09:31:14;;;;;;;24.35;15.93;;;36.20;99.90;;;;;;5034828;28;20207;-73
2023/08/20 09:33:52;;;;;;;16.83;13.35;;;38.00;99.90;;;;;;5058217;28;20203;-73
2023/08/20 09:36:29;;;;;;;17.67;12.40;;;39.30;99.90;;;;;;5054722;28;20635;-74
2023/08/20 09:38:58;;;;;;;18.90;14.02;;;40.20;99.90;;;;;;5044145;28;20191;-73
2023/08/20 09:41:26;;;;;;;18.23;12.93;;;36.70;99.90;;;;;;5035094;28;20220;-74
2023/08/20 09:43:56;;;;;;;16.73;12.63;;;37.50;99.90;;;;;;5042552;28;20321;-74
2023/08/20 09:46:30;;;;;;;20.60;14.18;;;39.30;99.90;;;;;;5042511;28;20198;-74
2023/08/20 09:48:58;;;;;;;17.52;13.77;;;40.70;99.90;;;;;;5046113;28;20209;-73
2023/08/20 09:51:26;;;;;;;20.13;14.65;;;39.40;99.90;;;;;;5019419;28;20203;-73
2023/08/20 09:54:30;;;;;;;15.70;12.35;;;39.20;99.90;;;;;;5037169;28;20686;-73
2023/08/20 09:57:02;;;;;;;14.80;11.82;;;38.70;99.90;;;;;;5010308;28;20223;-74
2023/08/20 09:59:29;;;;;;;12.93;9.82;;;40.30;99.90;;;;;;5018725;28;20217;-74
2023/08/20 10:01:57;;;;;;;14.55;9.30;;;40.10;99.90;;;;;;5040996;28;20639;-74
2023/08/20 10:04:25;;;;;;;9.52;8.35;;;43.20;99.90;;;;;;5038841;28;20286;-74
2023/08/20 10:06:54;;;;;;;11.40;9.75;;;43.00;99.90;;;;;;5041101;28;20199;-75
2023/08/20 10:09:22;;;;;;;10.45;8.65;;;42.50;99.90;;;;;;5038864;28;20268;-75
2023/08/20 10:11:49;;;;;;;11.93;9.57;;;44.00;99.90;;;;;;5041621;28;20203;-73
2023/08/20 10:14:16;;;;;;;9.82;8.20;;;46.10;99.90;;;;;;5034921;28;20218;-76
2023/08/20 10:16:45;;;;;;;8.50;7.47;;;46.60;99.90;;;;;;5026128;28;20280;-76
2023/08/20 10:19:14;;;;;;;9.85;7.85;;;47.00;99.90;;;;;;5033644;28;20729;-76
2023/08/20 10:21:45;;;;;;;8.77;7.75;;;47.60;99.90;;;;;;5037833;28;20960;-73
2023/08/20 10:24:20;;;;;;;7.68;6.88;;;45.90;99.90;;;;;;5038535;28;20334;-73
2023/08/20 10:26:48;;;;;;;7.85;6.57;;;45.30;99.90;;;;;;5040196;28;20353;-74
2023/08/20 10:29:38;;;;;;;8.32;6.72;;;45.50;99.90;;;;;;5023514;28;20191;-74
2023/08/20 10:32:10;;;;;;;6.18;5.60;;;44.80;99.90;;;;;;5046279;28;20570;-75
2023/08/20 10:34:40;;;;;;;7.95;6.53;;;43.90;99.90;;;;;;5036320;28;20199;-74
2023/08/20 10:37:12;;;;;;;8.30;6.90;;;43.40;99.90;;;;;;5060206;28;20379;-73
2023/08/20 10:39:42;;;;;;;7.78;6.75;;;45.00;99.90;;;;;;5042916;28;20208;-75
2023/08/20 10:42:23;;;;;;;8.00;7.20;;;45.20;99.90;;;;;;5018248;28;20686;-72
2023/08/20 10:45:08;;;;;;;7.18;6.57;;;44.90;99.90;;;;;;5039475;28;20255;-71
2023/08/20 10:47:42;;;;;;;6.88;6.03;;;43.50;99.90;;;;;;5042124;28;20191;-68
2023/08/20 10:50:16;;;;;;;8.98;7.00;;;43.50;99.90;;;;;;5031704;28;20535;-67
2023/08/20 10:52:54;;;;;;;7.43;6.72;;;43.00;99.90;;;;;;5041373;28;20187;-67
2023/08/20 10:55:24;;;;;;;8.55;6.93;;;41.00;99.90;;;;;;5041347;28;20399;-66
2023/08/20 10:57:56;;;;;;;7.80;7.10;;;39.30;99.90;;;;;;5041896;28;20234;-66
2023/08/20 11:00:23;;;;;;;7.75;6.22;;;38.70;99.90;;;;;;5035236;28;20295;-66
2023/08/20 11:02:52;;;;;;;7.50;6.78;;;38.90;99.90;;;;;;5036276;28;20650;-67
2023/08/20 11:05:23;;;;;;;6.85;6.25;;;38.70;99.90;;;;;;5040232;28;20191;-67
2023/08/20 11:07:50;;;;;;;7.43;6.47;;;38.90;99.90;;;;;;5029339;28;21005;-68
2023/08/20 11:10:18;;;;;;;7.25;6.47;;;38.70;99.90;;;;;;5039379;28;20195;-68
2023/08/20 11:12:48;;;;;;;6.57;5.93;;;37.50;99.90;;;;;;5035865;28;20754;-67
2023/08/20 11:15:15;;;;;;;7.53;6.78;;;37.00;99.90;;;;;;5038830;28;20689;-66
2023/08/20 11:17:46;;;;;;;7.72;6.40;;;36.60;99.90;;;;;;5032499;28;20195;-67
2023/08/20 11:20:17;;;;;;;7.55;6.20;;;36.70;99.90;;;;;;5017733;28;20223;-67
2023/08/20 11:22:45;;;;;;;12.75;7.10;;;36.80;99.90;;;;;;5025070;28;20199;-69
2023/08/20 11:25:15;;;;;;;9.93;7.32;;;35.70;99.90;;;;;;5042920;28;20309;-69
2023/08/20 11:27:43;;;;;;;9.43;6.65;;;35.40;99.90;;;;;;5020562;28;20196;-68
2023/08/20 11:30:14;;;;;;;7.20;6.32;;;34.20;99.90;;;;;;5035958;28;20642;-67
2023/08/20 11:32:43;;;;;;;6.35;5.75;;;35.20;99.90;;;;;;5020462;28;20214;-68
2023/08/20 11:35:11;;;;;;;7.07;6.45;;;34.70;99.90;;;;;;5042076;28;20202;-68
2023/08/20 11:37:41;;;;;;;6.93;6.15;;;36.70;99.90;;;;;;5035775;28;20188;-68
2023/08/20 11:40:08;;;;;;;6.85;5.82;;;38.10;99.90;;;;;;5028862;28;20564;-67
2023/08/20 11:42:35;;;;;;;6.43;5.85;;;38.20;99.90;;;;;;5038323;28;20306;-67
2023/08/20 11:45:03;;;;;;;6.22;5.63;;;37.60;99.90;;;;;;5036428;28;20191;-67
2023/08/20 11:47:41;;;;;;;6.20;5.40;;;37.70;99.90;;;;;;5039201;28;20191;-67
2023/08/20 11:50:09;;;;;;;7.07;5.25;;;37.90;99.90;;;;;;5021384;28;20283;-67
2023/08/20 11:52:39;;;;;;;8.80;5.40;;;38.20;99.90;;;;;;5033030;28;20183;-67
2023/08/20 11:55:07;;;;;;;5.93;5.43;;;37.90;99.90;;;;;;5042118;28;20294;-67
2023/08/20 11:57:34;;;;;;;7.85;5.65;;;37.60;99.90;;;;;;5032343;28;20200;-67
2023/08/20 12:00:15;;;;;;;5.57;5.03;;;38.10;99.90;;;;;;5022897;28;20673;-67
2023/08/20 12:02:42;;;;;;;5.75;5.20;;;39.30;99.90;;;;;;5029564;28;20254;-67
2023/08/20 12:05:09;;;;;;;6.70;5.47;;;39.70;99.90;;;;;;5024393;28;20234;-67
2023/08/20 12:07:36;;;;;;;5.35;4.85;;;39.80;99.90;;;;;;5031641;28;20191;-67
2023/08/20 12:10:21;;;;;;;5.40;4.95;;;39.90;99.90;;;;;;5022315;28;20686;-67
2023/08/20 12:12:49;;;;;;;6.97;5.07;;;40.10;99.90;;;;;;5036445;28;21678;-67
2023/08/20 12:15:17;;;;;;;5.93;5.40;;;39.40;99.90;;;;;;5033481;28;20218;-67
2023/08/20 12:18:04;;;;;;;5.70;5.15;;;38.60;99.90;;;;;;5029673;28;20249;-68
2023/08/20 12:20:34;;;;;;;7.55;5.40;;;38.80;99.90;;;;;;5035444;28;20196;-66
2023/08/20 12:23:04;;;;;;;5.75;5.25;;;39.20;99.90;;;;;;5039521;28;20198;-67
2023/08/20 12:25:33;;;;;;;6.03;5.32;;;38.20;99.90;;;;;;5056923;28;20333;-67
2023/08/20 12:28:05;;;;;;;7.82;5.75;;;38.30;99.90;;;;;;5050448;28;20240;-67
2023/08/20 12:30:35;;;;;;;6.70;5.28;;;38.40;99.90;;;;;;5056527;28;20179;-67
2023/08/20 12:33:05;;;;;;;6.03;5.43;;;36.90;99.90;;;;;;5047131;28;20661;-67
2023/08/20 12:35:33;;;;;;;7.55;5.45;;;36.30;99.90;;;;;;5045981;28;20207;-67
2023/08/20 12:38:00;;;;;;;5.45;4.93;;;36.00;99.90;;;;;;5024345;28;20399;-68
2023/08/20 12:40:28;;;;;;;5.55;5.05;;;35.80;99.90;;;;;;5051769;28;20207;-67
2023/08/20 12:42:55;;;;;;;5.80;5.28;;;34.90;99.90;;;;;;5059520;28;20574;-67
2023/08/20 12:45:22;;;;;;;5.03;4.53;;;34.60;99.90;;;;;;5060668;28;20191;-66
2023/08/20 12:47:49;;;;;;;8.07;6.60;;;34.40;99.90;;;;;;5058294;28;20203;-68
2023/08/20 12:50:16;;;;;;;7.18;6.22;;;34.70;99.90;;;;;;5058266;28;20187;-69
2023/08/20 12:52:43;;;;;;;6.30;4.75;;;34.20;99.90;;;;;;5042546;28;20218;-69
2023/08/20 12:55:11;;;;;;;6.53;4.78;;;34.00;99.90;;;;;;5060537;28;20260;-78
2023/08/20 12:57:55;;;;;;;8.32;6.22;;;33.50;99.90;;;;;;5057974;28;20203;-78
2023/08/20 13:00:27;;;;;;;5.38;4.88;;;33.30;99.90;;;;;;5055902;28;20211;-77
2023/08/20 13:02:54;;;;;;;4.82;4.43;;;33.30;99.90;;;;;;5025074;28;20258;-80
2023/08/20 13:05:23;;;;;;;10.77;4.80;;;33.20;99.90;;;;;;5058508;28;20204;-74
2023/08/20 13:07:51;;;;;;;5.15;4.65;;;32.70;99.90;;;;;;5054973;28;20248;-75
2023/08/20 13:10:20;;;;;;;5.05;4.55;;;32.60;99.90;;;;;;5041565;28;20645;-76
2023/08/20 13:12:54;;;;;;;5.28;4.78;;;32.60;99.90;;;;;;5060886;28;20199;-78
2023/08/20 13:15:22;;;;;;;4.55;4.03;;;32.90;99.90;;;;;;5044782;28;20265;-74
2023/08/20 13:17:50;;;;;;;5.45;4.88;;;33.00;99.90;;;;;;5044040;28;20289;-73
2023/08/20 13:20:21;;;;;;;5.40;4.90;;;32.70;99.90;;;;;;5025421;28;20416;-72
2023/08/20 13:22:52;;;;;;;5.53;4.70;;;32.70;99.90;;;;;;5062509;28;20226;-73
2023/08/20 13:25:21;;;;;;;5.53;4.90;;;32.50;99.90;;;;;;5058881;28;20548;-76
2023/08/20 13:27:49;;;;;;;6.30;5.03;;;32.70;99.90;;;;;;5062955;28;20203;-77
2023/08/20 13:30:17;;;;;;;4.95;4.45;;;32.50;99.90;;;;;;5059779;28;20286;-78
2023/08/20 13:32:44;;;;;;;5.20;4.70;;;32.50;99.90;;;;;;5043433;28;20619;-66
2023/08/20 13:35:11;;;;;;;6.72;6.07;;;32.40;99.90;;;;;;5057945;28;20244;-71
2023/08/20 13:37:38;;;;;;;6.70;5.85;;;32.90;99.90;;;;;;5055300;28;20195;-71
2023/08/20 13:40:09;;;;;;;9.40;6.57;;;32.90;99.90;;;;;;5057644;28;20848;-74
2023/08/20 13:42:36;;;;;;;7.28;6.00;;;33.00;99.90;;;;;;5047203;28;20218;-73
2023/08/20 13:45:04;;;;;;;7.82;6.40;;;33.40;99.90;;;;;;5060003;28;20275;-74
2023/08/20 13:47:31;;;;;;;5.97;5.43;;;33.80;99.90;;;;;;5030411;28;20194;-71
2023/08/20 13:49:58;;;;;;;8.07;6.60;;;33.80;99.90;;;;;;5054351;28;20201;-71
2023/08/20 13:52:25;;;;;;;7.47;6.68;;;33.10;99.90;;;;;;5060365;28;20207;-79
2023/08/20 13:54:52;;;;;;;8.48;6.78;;;32.80;99.90;;;;;;5051473;28;20202;-78
2023/08/20 13:57:19;;;;;;;7.10;6.40;;;32.50;99.90;;;;;;5040565;28;20199;-79
2023/08/20 13:59:46;;;;;;;8.07;6.40;;;32.40;99.90;;;;;;5044857;28;20199;-79
2023/08/20 14:02:13;;;;;;;6.35;5.75;;;32.20;99.90;;;;;;5033796;28;20214;-71
2023/08/20 14:04:40;;;;;;;9.73;8.45;;;32.10;99.90;;;;;;5041027;28;20195;-72
2023/08/20 14:07:07;;;;;;;8.70;7.90;;;32.00;99.90;;;;;;5040852;28;20196;-75
2023/08/20 14:09:35;;;;;;;7.65;6.88;;;32.00;99.90;;;;;;5056207;28;20179;-73
2023/08/20 14:12:03;;;;;;;10.65;7.68;;;32.30;99.90;;;;;;5042804;28;20222;-75
2023/08/20 14:14:30;;;;;;;8.45;7.15;;;31.60;99.90;;;;;;5053707;28;20712;-74
2023/08/20 14:16:57;;;;;;;6.85;6.15;;;31.60;99.90;;;;;;5023931;28;20206;-71
2023/08/20 14:19:24;;;;;;;9.45;6.78;;;32.00;99.90;;;;;;5020777;28;20199;-68
2023/08/20 14:21:51;;;;;;;7.35;6.65;;;32.30;99.90;;;;;;5040751;28;20548;-69
2023/08/20 14:24:18;;;;;;;7.25;6.55;;;32.60;99.90;;;;;;5026277;28;20230;-69
2023/08/20 14:26:46;;;;;;;7.00;6.30;;;32.90;99.90;;;;;;5042041;28;20230;-67
2023/08/20 14:29:13;;;;;;;7.53;6.72;;;33.10;99.90;;;;;;5039160;28;20186;-66
2023/08/20 14:31:42;;;;;;;7.57;6.63;;;33.10;99.90;;;;;;5041537;28;20194;-64
2023/08/20 14:34:09;;;;;;;7.18;6.47;;;33.40;99.90;;;;;;5042224;28;20215;-67
2023/08/20 14:36:36;;;;;;;7.18;6.47;;;33.60;99.90;;;;;;5052752;28;20195;-66
2023/08/20 14:39:06;;;;;;;8.05;6.85;;;33.40;99.90;;;;;;5028371;28;20294;-67
2023/08/20 14:41:35;;;;;;;7.88;6.68;;;33.00;99.90;;;;;;5043967;28;20249;-67
2023/08/20 14:44:03;;;;;;;9.18;7.60;;;32.70;99.90;;;;;;5039766;28;20740;-70
2023/08/20 14:46:30;;;;;;;9.52;8.02;;;32.80;99.90;;;;;;5025513;28;20610;-70
2023/08/20 14:48:57;;;;;;;10.50;7.78;;;32.80;99.90;;;;;;5064670;28;20206;-70
2023/08/20 14:51:25;;;;;;;8.63;7.70;;;32.80;99.90;;;;;;5028045;28;20270;-71
2023/08/20 14:53:52;;;;;;;8.18;7.38;;;32.70;99.90;;;;;;5061161;28;20322;-73
2023/08/20 14:56:19;;;;;;;7.07;6.38;;;32.70;99.90;;;;;;5054803;28;20193;-73
2023/08/20 14:58:46;;;;;;;9.38;7.50;;;32.50;99.90;;;;;;5038115;28;20207;-74
2023/08/20 15:01:14;;;;;;;8.07;7.13;;;32.50;99.90;;;;;;5038670;28;20186;-74
2023/08/20 15:03:42;;;;;;;10.98;7.82;;;32.30;99.90;;;;;;5053590;28;20670;-71
2023/08/20 15:06:09;;;;;;;7.88;7.15;;;32.10;99.90;;;;;;5041386;28;20219;-74
2023/08/20 15:08:36;;;;;;;9.38;8.20;;;32.20;99.90;;;;;;5061500;28;20732;-73
2023/08/20 15:11:05;;;;;;;8.07;6.75;;;32.30;99.90;;;;;;5040639;28;20334;-71
2023/08/20 15:13:32;;;;;;;8.75;7.85;;;32.20;99.90;;;;;;5047694;28;20194;-71
2023/08/20 15:16:00;;;;;;;10.00;8.23;;;32.10;99.90;;;;;;5024442;28;20194;-73
2023/08/20 15:18:27;;;;;;;8.20;7.40;;;32.00;99.90;;;;;;5046038;28;20199;-70
2023/08/20 15:20:58;;;;;;;8.90;8.00;;;31.80;99.90;;;;;;5017896;28;20199;-69
2023/08/20 15:23:28;;;;;;;8.43;7.63;;;31.80;99.90;;;;;;5039834;28;20342;-71
2023/08/20 15:25:56;;;;;;;7.53;6.60;;;31.90;99.90;;;;;;5057357;28;20659;-77
2023/08/20 15:28:25;;;;;;;8.80;7.85;;;31.70;99.90;;;;;;5038085;28;20252;-75
2023/08/20 15:30:54;;;;;;;10.70;8.50;;;31.70;99.90;;;;;;5036270;28;20292;-71
2023/08/20 15:33:35;;;;;;;10.00;9.02;;;31.60;99.90;;;;;;5038699;28;20188;-73
2023/08/20 15:36:03;;;;;;;9.73;8.82;;;31.40;99.90;;;;;;5025329;28;20199;-74
2023/08/20 15:38:30;;;;;;;10.48;8.35;;;31.00;99.90;;;;;;5015229;28;21024;-72
2023/08/20 15:40:59;;;;;;;8.63;7.22;;;30.80;99.90;;;;;;5055182;28;20556;-73
2023/08/20 15:43:26;;;;;;;7.90;7.10;;;30.80;99.90;;;;;;5025180;28;20211;-74
2023/08/20 15:45:53;;;;;;;9.57;7.82;;;30.80;99.90;;;;;;5054874;28;20200;-69
2023/08/20 15:48:20;;;;;;;9.65;8.27;;;30.70;99.90;;;;;;5039804;28;20203;-73
2023/08/20 15:50:48;;;;;;;13.55;10.25;;;30.50;99.90;;;;;;5054974;28;20195;-69
2023/08/20 15:53:15;;;;;;;16.58;12.25;;;30.60;99.90;;;;;;5024920;28;20536;-68
2023/08/20 15:55:42;;;;;;;9.77;7.45;;;30.70;99.90;;;;;;5044946;28;20215;-73
2023/08/20 15:58:10;;;;;;;10.82;9.15;;;30.70;99.90;;;;;;5043090;28;20213;-69
2023/08/20 16:00:41;;;;;;;7.38;6.70;;;30.80;99.90;;;;;;5043195;28;20686;-74
2023/08/20 16:03:11;;;;;;;7.80;6.97;;;31.10;99.90;;;;;;5026333;28;20238;-73
2023/08/20 16:05:42;;;;;;;7.40;6.03;;;31.40;99.90;;;;;;5043258;28;20214;-69
2023/08/20 16:08:12;;;;;;;7.10;6.40;;;31.60;99.90;;;;;;5042987;28;20207;-74
2023/08/20 16:10:42;;;;;;;6.63;5.85;;;31.70;99.90;;;;;;5041318;28;20247;-73
2023/08/20 16:13:10;;;;;;;8.75;7.15;;;31.80;99.90;;;;;;5045356;28;20409;-71
2023/08/20 16:15:41;;;;;;;7.70;6.90;;;31.60;99.90;;;;;;5031948;28;20248;-69
2023/08/20 16:18:13;;;;;;;7.40;6.65;;;31.10;99.90;;;;;;5059810;28;20557;-68
2023/08/20 16:20:42;;;;;;;6.25;5.65;;;30.80;99.90;;;;;;5042524;28;20984;-73
2023/08/20 16:23:13;;;;;;;5.28;4.78;;;31.00;99.90;;;;;;5030475;28;20316;-72
2023/08/20 16:25:42;;;;;;;8.43;5.57;;;31.10;99.90;;;;;;5044774;28;21078;-75
2023/08/20 16:28:13;;;;;;;6.28;5.68;;;31.40;99.90;;;;;;5028953;28;20289;-70
2023/08/20 16:30:42;;;;;;;7.35;6.47;;;31.30;99.90;;;;;;5039686;28;20322;-72
2023/08/20 16:33:10;;;;;;;7.88;4.95;;;31.30;99.90;;;;;;5044877;28;20992;-69
2023/08/20 16:35:44;;;;;;;7.32;6.47;;;31.10;99.90;;;;;;5044846;28;20230;-70
2023/08/20 16:38:11;;;;;;;12.15;8.30;;;30.60;99.90;;;;;;5043921;28;21735;-68
2023/08/20 16:40:39;;;;;;;11.98;7.65;;;30.10;99.90;;;;;;5057166;28;21537;-68
2023/08/20 16:43:06;;;;;;;16.90;8.15;;;29.70;99.90;;;;;;5043453;28;20234;-68
2023/08/20 16:45:34;;;;;;;9.68;6.65;;;29.40;99.90;;;;;;5062148;28;20244;-68
2023/08/20 16:48:01;;;;;;;5.75;5.07;;;29.20;99.90;;;;;;5046738;28;20221;-67
2023/08/20 16:50:28;;;;;;;10.45;5.55;;;29.10;99.90;;;;;;5043029;28;20197;-72
2023/08/20 16:52:57;;;;;;;7.18;5.13;;;29.00;99.90;;;;;;5063089;28;20233;-67
2023/08/20 16:55:25;;;;;;;5.25;4.53;;;29.00;99.90;;;;;;5042410;28;20220;-68
2023/08/20 16:57:54;;;;;;;4.22;3.83;;;28.90;99.90;;;;;;5043772;28;20647;-73
2023/08/20 17:00:21;;;;;;;6.20;4.63;;;28.80;99.90;;;;;;5040483;28;20281;-68
2023/08/20 17:02:49;;;;;;;6.50;4.10;;;28.90;99.90;;;;;;5044708;28;20214;-68
2023/08/20 17:05:16;;;;;;;3.88;3.45;;;28.70;99.90;;;;;;5040692;28;20195;-68
2023/08/20 17:07:43;;;;;;;5.18;4.15;;;28.50;99.90;;;;;;5040206;28;20796;-72
2023/08/20 17:10:10;;;;;;;4.25;3.35;;;28.20;99.90;;;;;;5036697;28;20823;-71
2023/08/20 17:12:38;;;;;;;4.13;3.35;;;28.00;99.90;;;;;;5027079;28;20272;-72
2023/08/20 17:15:06;;;;;;;5.88;3.50;;;28.00;99.90;;;;;;5041077;28;20225;-72
2023/08/20 17:17:34;;;;;;;3.85;3.53;;;27.90;99.90;;;;;;5027384;28;20211;-69
2023/08/20 17:20:02;;;;;;;4.85;3.30;;;27.90;99.90;;;;;;5057697;28;20203;-73
2023/08/20 17:22:29;;;;;;;5.20;3.60;;;27.90;99.90;;;;;;5060494;28;20215;-73
2023/08/20 17:24:57;;;;;;;5.03;3.40;;;28.00;99.90;;;;;;5044188;28;20226;-68
2023/08/20 17:27:24;;;;;;;6.32;3.85;;;27.80;99.90;;;;;;5045376;28;20304;-74
2023/08/20 17:29:51;;;;;;;6.35;3.63;;;27.70;99.90;;;;;;5026930;28;20213;-68
2023/08/20 17:32:18;;;;;;;4.10;3.58;;;27.70;99.90;;;;;;5059737;28;20642;-72
2023/08/20 17:34:46;;;;;;;4.55;3.22;;;27.50;99.90;;;;;;5039952;28;20270;-68
2023/08/20 17:37:13;;;;;;;3.30;3.00;;;27.60;99.90;;;;;;5042396;28;20207;-67
2023/08/20 17:39:40;;;;;;;4.15;3.75;;;27.40;99.90;;;;;;5040002;28;20667;-68
2023/08/20 17:42:07;;;;;;;8.63;3.67;;;27.40;99.90;;;;;;5042870;28;20199;-73
2023/08/20 17:44:35;;;;;;;6.75;4.10;;;27.50;99.90;;;;;;5041715;28;20187;-67
2023/08/20 17:47:02;;;;;;;5.15;3.10;;;27.40;99.90;;;;;;5042955;28;20199;-72
2023/08/20 17:49:29;;;;;;;5.15;2.95;;;27.30;99.90;;;;;;5025370;28;20483;-72
2023/08/20 17:51:56;;;;;;;3.85;2.88;;;27.30;99.90;;;;;;5044655;28;20223;-72
2023/08/20 17:54:23;;;;;;;6.05;3.00;;;27.30;99.90;;;;;;5042337;28;20274;-73
2023/08/20 17:56:50;;;;;;;3.58;3.17;;;27.20;99.90;;;;;;5060333;28;20199;-68
2023/08/20 17:59:17;;;;;;;2.95;2.50;;;27.20;99.90;;;;;;5039739;28;20230;-68
2023/08/20 18:01:44;;;;;;;5.25;3.03;;;27.20;99.90;;;;;;5057714;28;20206;-68
2023/08/20 18:04:12;;;;;;;3.80;3.30;;;27.10;99.90;;;;;;5026230;28;20759;-68
2023/08/20 18:06:40;;;;;;;9.18;3.30;;;27.00;99.90;;;;;;5056094;28;20257;-71
2023/08/20 18:09:08;;;;;;;4.25;3.20;;;27.00;99.90;;;;;;5040619;28;20286;-74
2023/08/20 18:11:36;;;;;;;8.25;3.30;;;26.90;99.90;;;;;;5059597;28;20195;-69
2023/08/20 18:14:04;;;;;;;5.93;3.30;;;26.90;99.90;;;;;;5059038;28;20281;-68
2023/08/20 18:16:32;;;;;;;4.53;3.70;;;27.00;99.90;;;;;;5025583;28;20211;-69
2023/08/20 18:19:03;;;;;;;5.10;4.60;;;27.10;99.90;;;;;;5035456;28;20560;-73
2023/08/20 18:21:30;;;;;;;9.30;5.13;;;27.00;99.90;;;;;;5037697;28;20516;-69
2023/08/20 18:23:58;;;;;;;7.70;4.45;;;26.90;99.90;;;;;;5040742;28;20238;-70
2023/08/20 18:26:25;;;;;;;5.68;4.10;;;26.80;99.90;;;;;;5040197;28;20187;-72
2023/08/20 18:28:52;;;;;;;3.92;3.28;;;26.80;99.90;;;;;;5045208;28;20206;-68
2023/08/20 18:31:19;;;;;;;3.78;3.10;;;26.70;99.90;;;;;;5057722;28;20729;-72
2023/08/20 18:33:47;;;;;;;6.28;3.28;;;26.70;99.90;;;;;;5059634;28;20302;-68
2023/08/20 18:36:14;;;;;;;4.00;2.78;;;26.60;99.90;;;;;;5038204;28;20211;-72
2023/08/20 18:38:41;;;;;;;3.13;2.63;;;26.60;99.90;;;;;;5036587;28;20203;-72
2023/08/20 18:41:12;;;;;;;3.45;2.42;;;26.40;99.90;;;;;;5041527;28;20202;-73
2023/08/20 18:43:40;;;;;;;2.45;2.20;;;26.30;99.90;;;;;;5024301;28;20214;-73
2023/08/20 18:46:07;;;;;;;5.38;2.50;;;26.20;99.90;;;;;;5041846;28;20198;-72
2023/08/20 18:48:35;;;;;;;3.50;2.35;;;26.10;99.90;;;;;;5036247;28;20924;-68
2023/08/20 18:51:05;;;;;;;3.00;2.50;;;26.00;99.90;;;;;;5053829;28;20371;-68
2023/08/20 18:53:33;;;;;;;6.55;2.53;;;25.90;99.90;;;;;;5059225;28;20201;-68
2023/08/20 18:56:01;;;;;;;4.45;3.20;;;25.80;99.90;;;;;;5040663;28;20210;-69
2023/08/20 18:58:32;;;;;;;4.97;3.30;;;25.60;99.90;;;;;;5017411;28;20274;-73
2023/08/20 19:00:59;;;;;;;5.65;3.90;;;25.60;99.90;;;;;;5037151;28;20210;-69
2023/08/20 19:03:26;;;;;;;4.35;3.17;;;25.50;99.90;;;;;;5057376;28;20211;-68
2023/08/20 19:05:54;;;;;;;4.28;3.28;;;25.40;99.90;;;;;;5025049;28;20191;-68
2023/08/20 19:08:22;;;;;;;2.95;2.58;;;25.30;99.90;;;;;;5024118;28;20191;-68
2023/08/20 19:10:50;;;;;;;3.80;2.45;;;25.30;99.90;;;;;;5040499;28;20297;-72
2023/08/20 19:13:17;;;;;;;3.88;2.40;;;25.20;99.90;;;;;;5040779;28;20261;-68
2023/08/20 19:15:49;;;;;;;3.50;2.72;;;25.10;99.90;;;;;;5047600;28;20329;-69
2023/08/20 19:18:17;;;;;;;4.72;2.10;;;25.00;99.90;;;;;;5035639;28;20199;-69
2023/08/20 19:20:52;;;;;;;6.28;2.78;;;25.00;99.90;;;;;;5057376;28;20207;-68
2023/08/20 19:23:20;;;;;;;3.72;3.05;;;24.90;99.90;;;;;;5059114;28;20218;-68
2023/08/20 19:25:48;;;;;;;5.68;3.65;;;24.80;99.90;;;;;;5025635;28;20975;-68
2023/08/20 19:28:16;;;;;;;5.10;3.00;;;24.80;99.90;;;;;;5053525;28;20612;-68
2023/08/20 19:30:48;;;;;;;3.83;2.47;;;24.60;99.90;;;;;;5036074;28;20191;-68
2023/08/20 19:33:17;;;;;;;3.20;2.40;;;24.60;99.90;;;;;;5057570;28;20616;-68
2023/08/20 19:35:46;;;;;;;3.53;2.22;;;24.50;99.90;;;;;;5029168;28;20206;-67
2023/08/20 19:38:14;;;;;;;4.78;2.50;;;24.30;99.90;;;;;;5057130;28;20270;-67
2023/08/20 19:40:43;;;;;;;2.95;2.35;;;24.30;99.90;;;;;;5057525;28;20199;-67
2023/08/20 19:43:10;;;;;;;4.20;2.22;;;24.20;99.90;;;;;;5038411;28;20214;-68
2023/08/20 19:45:37;;;;;;;3.35;2.45;;;24.10;99.90;;;;;;5057084;28;20767;-67
2023/08/20 19:48:05;;;;;;;6.70;2.35;;;24.10;99.90;;;;;;5052932;28;20309;-67
2023/08/20 19:50:32;;;;;;;3.03;2.35;;;24.00;99.90;;;;;;5039445;28;20191;-68
2023/08/20 19:52:59;;;;;;;3.35;2.50;;;24.10;99.90;;;;;;5050544;28;20243;-69
2023/08/20 19:55:26;;;;;;;5.80;4.00;;;24.00;99.90;;;;;;5023679;28;20329;-72
2023/08/20 19:57:54;;;;;;;8.25;2.83;;;24.00;99.90;;;;;;5058865;28;20662;-71
2023/08/20 20:00:25;;;;;;;3.58;2.38;;;24.00;99.90;;;;;;5044741;28;20199;-69
2023/08/20 20:02:53;;;;;;;3.03;2.22;;;23.90;99.90;;;;;;5050226;28;20216;-68
2023/08/20 20:05:21;;;;;;;5.32;3.53;;;23.80;99.90;;;;;;5052463;28;20196;-72
2023/08/20 20:07:50;;;;;;;4.63;2.10;;;23.60;99.90;;;;;;5049504;28;20647;-69
2023/08/20 20:10:21;;;;;;;3.72;2.55;;;23.30;99.90;;;;;;5048406;28;20187;-72
2023/08/20 20:12:51;;;;;;;3.45;2.20;;;22.80;99.90;;;;;;5030097;28;20222;-69
2023/08/20 20:15:18;;;;;;;2.03;1.92;;;22.50;99.90;;;;;;5041600;28;20309;-70
2023/08/20 20:17:46;;;;;;;6.10;2.63;;;22.60;99.90;;;;;;5026079;28;20314;-72
2023/08/20 20:20:14;;;;;;;2.40;2.20;;;22.50;99.90;;;;;;5048480;28;20226;-67
2023/08/20 20:22:42;;;;;;;3.97;2.55;;;22.30;99.90;;;;;;5048446;28;20196;-66
2023/08/20 20:25:09;;;;;;;2.80;2.13;;;22.40;99.90;;;;;;5050025;28;20227;-67
2023/08/20 20:27:36;;;;;;;6.15;2.55;;;22.60;99.90;;;;;;5039745;28;20202;-64
2023/08/20 20:30:05;;;;;;;3.15;2.08;;;22.80;99.90;;;;;;5048275;28;20280;-67
2023/08/20 20:32:36;;;;;;;10.05;2.97;;;22.80;99.90;;;;;;5023262;28;20195;-68
2023/08/20 20:35:04;;;;;;;5.55;1.95;;;22.80;99.90;;;;;;5055367;28;20639;-66
2023/08/20 20:37:31;;;;;;;5.65;2.30;;;22.80;99.90;;;;;;5047270;28;20191;-66
2023/08/20 20:39:58;;;;;;;3.97;2.38;;;22.80;99.90;;;;;;5049575;28;20238;-67
2023/08/20 20:42:25;;;;;;;5.55;2.28;;;22.70;99.90;;;;;;5047630;28;20183;-66
2023/08/20 20:44:52;;;;;;;7.38;2.30;;;22.20;99.90;;;;;;5040484;28;20278;-66
2023/08/20 20:47:19;;;;;;;4.10;1.92;;;21.80;99.90;;;;;;5055881;28;20199;-66
2023/08/20 20:49:46;;;;;;;6.45;2.33;;;21.40;99.90;;;;;;5056888;28;20191;-65
2023/08/20 20:52:13;;;;;;;6.40;2.03;;;21.50;99.90;;;;;;5044451;28;20242;-65
2023/08/20 20:54:40;;;;;;;4.43;1.95;;;21.70;99.90;;;;;;5046167;28;20206;-65
2023/08/20 20:57:07;;;;;;;8.15;2.20;;;21.90;99.90;;;;;;5057362;28;20199;-65
2023/08/20 20:59:35;;;;;;;5.47;2.65;;;22.00;99.90;;;;;;5058095;28;20191;-71
2023/08/20 21:02:03;;;;;;;10.77;2.90;;;22.20;99.90;;;;;;5044609;28;20227;-72
2023/08/20 21:04:30;;;;;;;4.35;1.95;;;22.20;99.90;;;;;;5043093;28;20207;-70
2023/08/20 21:06:58;;;;;;;2.15;1.63;;;22.30;99.90;;;;;;5060460;28;20222;-68
2023/08/20 21:09:25;;;;;;;2.67;2.10;;;22.40;99.90;;;;;;5059241;28;20674;-73
2023/08/20 21:11:52;;;;;;;5.55;2.03;;;22.40;99.90;;;;;;5054857;28;20199;-72
2023/08/20 21:14:20;;;;;;;6.05;3.55;;;22.40;99.90;;;;;;5061159;28;20246;-72